sensor_id;sensor_type;location;lat;lon;timestamp;temperature;humidity
54846;DHT22;53889;50.084;8.646;2023-03-31T00:00:57;12.30;99.90
54846;DHT22;53889;50.084;8.646;2023-03-31T00:03:25;12.30;99.90
54846;DHT22;53889;50.084;8.646;2023-03-31T00:05:54;12.30;99.90
54846;DHT22;53889;50.084;8.646;2023-03-31T00:08:22;12.20;99.90
54846;DHT22;53889;50.084;8.646;2023-03-31T00:10:50;12.20;99.90
54846;DHT22;53889;50.084;8.646;2023-03-31T00:13:17;12.10;99.90
54846;DHT22;53889;50.084;8.646;2023-03-31T00:15:44;12.10;99.90
54846;DHT22;53889;50.084;8.646;2023-03-31T00:18:10;12.10;99.90
54846;DHT22;53889;50.084;8.646;2023-03-31T00:20:37;12.00;99.90
54846;DHT22;53889;50.084;8.646;2023-03-31T00:23:04;11.90;99.90
54846;DHT22;53889;50.084;8.646;2023-03-31T00:25:37;11.80;99.90
54846;DHT22;53889;50.084;8.646;2023-03-31T00:28:06;11.80;99.90
54846;DHT22;53889;50.084;8.646;2023-03-31T00:30:33;11.80;99.90
54846;DHT22;53889;50.084;8.646;2023-03-31T00:32:59;11.70;99.90
54846;DHT22;53889;50.084;8.646;2023-03-31T00:35:27;11.70;99.90
54846;DHT22;53889;50.084;8.646;2023-03-31T00:37:53;11.60;99.90
54846;DHT22;53889;50.084;8.646;2023-03-31T00:40:22;11.50;99.90
54846;DHT22;53889;50.084;8.646;2023-03-31T00:42:50;11.50;99.90
54846;DHT22;53889;50.084;8.646;2023-03-31T00:45:27;11.50;99.90
54846;DHT22;53889;50.084;8.646;2023-03-31T00:47:57;11.50;99.90
54846;DHT22;53889;50.084;8.646;2023-03-31T00:50:31;11.40;99.90
54846;DHT22;53889;50.084;8.646;2023-03-31T00:53:00;11.30;99.90
54846;DHT22;53889;50.084;8.646;2023-03-31T00:55:32;11.30;99.90
54846;DHT22;53889;50.084;8.646;2023-03-31T00:58:01;11.30;99.90
54846;DHT22;53889;50.084;8.646;2023-03-31T01:00:30;11.40;99.90
54846;DHT22;53889;50.084;8.646;2023-03-31T01:02:59;11.40;99.90
54846;DHT22;53889;50.084;8.646;2023-03-31T01:05:33;11.40;99.90
54846;DHT22;53889;50.084;8.646;2023-03-31T01:08:04;11.40;99.90
54846;DHT22;53889;50.084;8.646;2023-03-31T01:10:33;11.30;99.90
54846;DHT22;53889;50.084;8.646;2023-03-31T01:13:07;11.20;99.90
54846;DHT22;53889;50.084;8.646;2023-03-31T01:15:36;11.20;99.90
54846;DHT22;53889;50.084;8.646;2023-03-31T01:18:04;11.20;99.90
54846;DHT22;53889;50.084;8.646;2023-03-31T01:20:37;11.10;99.90
54846;DHT22;53889;50.084;8.646;2023-03-31T01:23:27;11.20;99.90
54846;DHT22;53889;50.084;8.646;2023-03-31T01:26:17;11.20;99.90
54846;DHT22;53889;50.084;8.646;2023-03-31T01:28:54;11.20;99.90
54846;DHT22;53889;50.084;8.646;2023-03-31T01:37:58;11.10;99.90
54846;DHT22;53889;50.084;8.646;2023-03-31T01:40:53;11.10;99.90
54846;DHT22;53889;50.084;8.646;2023-03-31T01:43:26;11.10;99.90
54846;DHT22;53889;50.084;8.646;2023-03-31T01:46:02;11.10;99.90
54846;DHT22;53889;50.084;8.646;2023-03-31T01:48:37;11.10;99.90
54846;DHT22;53889;50.084;8.646;2023-03-31T01:51:12;11.00;99.90
54846;DHT22;53889;50.084;8.646;2023-03-31T01:53:47;11.00;99.90
54846;DHT22;53889;50.084;8.646;2023-03-31T01:56:21;11.10;99.90
54846;DHT22;53889;50.084;8.646;2023-03-31T01:58:52;11.00;99.90
54846;DHT22;53889;50.084;8.646;2023-03-31T02:01:25;11.00;99.90
54846;DHT22;53889;50.084;8.646;2023-03-31T02:03:56;11.00;99.90
54846;DHT22;53889;50.084;8.646;2023-03-31T02:06:27;11.10;99.90
54846;DHT22;53889;50.084;8.646;2023-03-31T02:09:00;11.00;99.90
54846;DHT22;53889;50.084;8.646;2023-03-31T02:11:31;11.00;99.90
54846;DHT22;53889;50.084;8.646;2023-03-31T02:14:01;11.00;99.90
54846;DHT22;53889;50.084;8.646;2023-03-31T02:16:31;11.00;99.90
54846;DHT22;53889;50.084;8.646;2023-03-31T02:19:03;11.00;99.90
54846;DHT22;53889;50.084;8.646;2023-03-31T02:21:31;10.90;99.90
54846;DHT22;53889;50.084;8.646;2023-03-31T02:23:59;11.00;99.90
54846;DHT22;53889;50.084;8.646;2023-03-31T02:26:32;10.90;99.90
54846;DHT22;53889;50.084;8.646;2023-03-31T02:29:01;10.90;99.90
54846;DHT22;53889;50.084;8.646;2023-03-31T02:31:34;10.80;99.90
54846;DHT22;53889;50.084;8.646;2023-03-31T02:34:05;10.80;99.90
54846;DHT22;53889;50.084;8.646;2023-03-31T02:36:32;10.70;99.90
54846;DHT22;53889;50.084;8.646;2023-03-31T02:39:03;10.70;99.90
54846;DHT22;53889;50.084;8.646;2023-03-31T02:41:32;10.60;99.90
54846;DHT22;53889;50.084;8.646;2023-03-31T02:43:59;10.60;99.90
54846;DHT22;53889;50.084;8.646;2023-03-31T02:46:26;10.60;99.90
54846;DHT22;53889;50.084;8.646;2023-03-31T02:48:55;10.60;99.90
54846;DHT22;53889;50.084;8.646;2023-03-31T02:51:39;10.60;99.90
54846;DHT22;53889;50.084;8.646;2023-03-31T02:54:13;10.60;99.90
54846;DHT22;53889;50.084;8.646;2023-03-31T02:57:18;10.70;99.90
54846;DHT22;53889;50.084;8.646;2023-03-31T02:59:54;10.70;99.90
54846;DHT22;53889;50.084;8.646;2023-03-31T03:02:30;10.70;99.90
54846;DHT22;53889;50.084;8.646;2023-03-31T03:05:34;10.70;99.90
54846;DHT22;53889;50.084;8.646;2023-03-31T03:08:28;10.60;99.90
54846;DHT22;53889;50.084;8.646;2023-03-31T03:11:01;10.60;99.90
54846;DHT22;53889;50.084;8.646;2023-03-31T03:13:35;10.50;99.90
54846;DHT22;53889;50.084;8.646;2023-03-31T03:16:10;10.60;99.90
54846;DHT22;53889;50.084;8.646;2023-03-31T03:18:43;10.50;99.90
54846;DHT22;53889;50.084;8.646;2023-03-31T03:21:10;10.50;99.90
54846;DHT22;53889;50.084;8.646;2023-03-31T03:23:36;10.50;99.90
54846;DHT22;53889;50.084;8.646;2023-03-31T03:26:04;10.50;99.90
54846;DHT22;53889;50.084;8.646;2023-03-31T03:28:32;10.60;99.90
54846;DHT22;53889;50.084;8.646;2023-03-31T03:30:59;10.60;99.90
54846;DHT22;53889;50.084;8.646;2023-03-31T03:33:25;10.60;99.90
54846;DHT22;53889;50.084;8.646;2023-03-31T03:35:52;10.60;99.90
54846;DHT22;53889;50.084;8.646;2023-03-31T03:38:19;10.50;99.90
54846;DHT22;53889;50.084;8.646;2023-03-31T03:40:45;10.50;99.90
54846;DHT22;53889;50.084;8.646;2023-03-31T03:43:12;10.50;99.90
54846;DHT22;53889;50.084;8.646;2023-03-31T03:45:40;10.50;99.90
54846;DHT22;53889;50.084;8.646;2023-03-31T03:48:06;10.50;99.90
54846;DHT22;53889;50.084;8.646;2023-03-31T03:50:35;10.60;99.90
54846;DHT22;53889;50.084;8.646;2023-03-31T03:53:02;10.60;99.90
54846;DHT22;53889;50.084;8.646;2023-03-31T03:55:29;10.50;99.90
54846;DHT22;53889;50.084;8.646;2023-03-31T03:57:55;10.50;99.90
54846;DHT22;53889;50.084;8.646;2023-03-31T04:00:22;10.50;99.90
54846;DHT22;53889;50.084;8.646;2023-03-31T04:02:50;10.60;99.90
54846;DHT22;53889;50.084;8.646;2023-03-31T04:05:16;10.60;99.90
54846;DHT22;53889;50.084;8.646;2023-03-31T04:07:43;10.50;99.90
54846;DHT22;53889;50.084;8.646;2023-03-31T04:10:10;10.60;99.90
54846;DHT22;53889;50.084;8.646;2023-03-31T04:12:37;10.50;99.90
54846;DHT22;53889;50.084;8.646;2023-03-31T04:15:05;10.60;99.90
54846;DHT22;53889;50.084;8.646;2023-03-31T04:17:32;10.60;99.90
54846;DHT22;53889;50.084;8.646;2023-03-31T04:20:00;10.60;99.90
54846;DHT22;53889;50.084;8.646;2023-03-31T04:22:30;10.60;99.90
54846;DHT22;53889;50.084;8.646;2023-03-31T04:25:00;10.60;99.90
54846;DHT22;53889;50.084;8.646;2023-03-31T04:27:27;10.60;99.90
54846;DHT22;53889;50.084;8.646;2023-03-31T04:29:55;10.60;99.90
54846;DHT22;53889;50.084;8.646;2023-03-31T04:32:23;10.60;99.90
54846;DHT22;53889;50.084;8.646;2023-03-31T04:34:49;10.60;99.90
54846;DHT22;53889;50.084;8.646;2023-03-31T04:37:17;10.60;99.90
54846;DHT22;53889;50.084;8.646;2023-03-31T04:39:44;10.60;99.90
54846;DHT22;53889;50.084;8.646;2023-03-31T04:42:15;10.60;99.90
54846;DHT22;53889;50.084;8.646;2023-03-31T04:44:41;10.60;99.90
54846;DHT22;53889;50.084;8.646;2023-03-31T04:47:08;10.70;99.90
54846;DHT22;53889;50.084;8.646;2023-03-31T04:49:35;10.70;99.90
54846;DHT22;53889;50.084;8.646;2023-03-31T04:52:01;10.60;99.90
54846;DHT22;53889;50.084;8.646;2023-03-31T04:54:29;10.60;99.90
54846;DHT22;53889;50.084;8.646;2023-03-31T04:56:56;10.60;99.90
54846;DHT22;53889;50.084;8.646;2023-03-31T04:59:23;10.60;99.90
54846;DHT22;53889;50.084;8.646;2023-03-31T05:01:49;10.70;99.90
54846;DHT22;53889;50.084;8.646;2023-03-31T05:04:16;10.70;99.90
54846;DHT22;53889;50.084;8.646;2023-03-31T05:06:43;10.70;99.90
54846;DHT22;53889;50.084;8.646;2023-03-31T05:09:09;10.70;99.90
54846;DHT22;53889;50.084;8.646;2023-03-31T05:11:38;10.70;99.90
54846;DHT22;53889;50.084;8.646;2023-03-31T05:14:05;10.70;99.90
54846;DHT22;53889;50.084;8.646;2023-03-31T05:16:31;10.70;99.90
54846;DHT22;53889;50.084;8.646;2023-03-31T05:18:58;10.70;99.90
54846;DHT22;53889;50.084;8.646;2023-03-31T05:21:25;10.70;99.90
54846;DHT22;53889;50.084;8.646;2023-03-31T05:23:55;10.60;99.90
54846;DHT22;53889;50.084;8.646;2023-03-31T05:26:22;10.60;99.90
54846;DHT22;53889;50.084;8.646;2023-03-31T05:28:50;10.60;99.90
54846;DHT22;53889;50.084;8.646;2023-03-31T05:31:17;10.60;99.90
54846;DHT22;53889;50.084;8.646;2023-03-31T05:33:45;10.50;99.90
54846;DHT22;53889;50.084;8.646;2023-03-31T05:36:14;10.50;99.90
54846;DHT22;53889;50.084;8.646;2023-03-31T05:38:41;10.50;99.90
54846;DHT22;53889;50.084;8.646;2023-03-31T05:41:09;10.40;99.90
54846;DHT22;53889;50.084;8.646;2023-03-31T05:43:36;10.40;99.90
54846;DHT22;53889;50.084;8.646;2023-03-31T05:46:05;10.50;99.90
54846;DHT22;53889;50.084;8.646;2023-03-31T05:48:31;10.50;99.90
54846;DHT22;53889;50.084;8.646;2023-03-31T05:50:59;10.50;99.90
54846;DHT22;53889;50.084;8.646;2023-03-31T05:53:26;10.50;99.90
54846;DHT22;53889;50.084;8.646;2023-03-31T05:55:56;10.50;99.90
54846;DHT22;53889;50.084;8.646;2023-03-31T05:58:23;10.50;99.90
54846;DHT22;53889;50.084;8.646;2023-03-31T06:00:49;10.40;99.90
54846;DHT22;53889;50.084;8.646;2023-03-31T06:03:19;10.40;99.90
54846;DHT22;53889;50.084;8.646;2023-03-31T06:05:46;10.40;99.90
54846;DHT22;53889;50.084;8.646;2023-03-31T06:08:13;10.40;99.90
54846;DHT22;53889;50.084;8.646;2023-03-31T06:10:40;10.40;99.90
54846;DHT22;53889;50.084;8.646;2023-03-31T06:13:07;10.40;99.90
54846;DHT22;53889;50.084;8.646;2023-03-31T06:15:33;10.40;99.90
54846;DHT22;53889;50.084;8.646;2023-03-31T06:18:00;10.30;99.90
54846;DHT22;53889;50.084;8.646;2023-03-31T06:20:28;10.30;99.90
54846;DHT22;53889;50.084;8.646;2023-03-31T06:22:55;10.30;99.90
54846;DHT22;53889;50.084;8.646;2023-03-31T06:25:21;10.30;99.90
54846;DHT22;53889;50.084;8.646;2023-03-31T06:27:48;10.30;99.90
54846;DHT22;53889;50.084;8.646;2023-03-31T06:30:15;10.30;99.90
54846;DHT22;53889;50.084;8.646;2023-03-31T06:32:42;10.30;99.90
54846;DHT22;53889;50.084;8.646;2023-03-31T06:35:08;10.40;99.90
54846;DHT22;53889;50.084;8.646;2023-03-31T06:37:37;10.40;99.90
54846;DHT22;53889;50.084;8.646;2023-03-31T06:40:04;10.30;99.90
54846;DHT22;53889;50.084;8.646;2023-03-31T06:42:31;10.30;99.90
54846;DHT22;53889;50.084;8.646;2023-03-31T06:44:59;10.30;99.90
54846;DHT22;53889;50.084;8.646;2023-03-31T06:47:25;10.20;99.90
54846;DHT22;53889;50.084;8.646;2023-03-31T06:49:52;10.30;99.90
54846;DHT22;53889;50.084;8.646;2023-03-31T06:52:19;10.30;99.90
54846;DHT22;53889;50.084;8.646;2023-03-31T06:54:47;10.30;99.90
54846;DHT22;53889;50.084;8.646;2023-03-31T06:57:13;10.30;99.90
54846;DHT22;53889;50.084;8.646;2023-03-31T06:59:40;10.30;99.90
54846;DHT22;53889;50.084;8.646;2023-03-31T07:02:08;10.30;99.90
54846;DHT22;53889;50.084;8.646;2023-03-31T07:04:35;10.30;99.90
54846;DHT22;53889;50.084;8.646;2023-03-31T07:07:02;10.40;99.90
54846;DHT22;53889;50.084;8.646;2023-03-31T07:09:29;10.40;99.90
54846;DHT22;53889;50.084;8.646;2023-03-31T07:11:56;10.40;99.90
54846;DHT22;53889;50.084;8.646;2023-03-31T07:14:23;10.50;99.90
54846;DHT22;53889;50.084;8.646;2023-03-31T07:16:50;10.40;99.90
54846;DHT22;53889;50.084;8.646;2023-03-31T07:19:17;10.40;99.90
54846;DHT22;53889;50.084;8.646;2023-03-31T07:21:44;10.50;99.90
54846;DHT22;53889;50.084;8.646;2023-03-31T07:24:11;10.40;99.90
54846;DHT22;53889;50.084;8.646;2023-03-31T07:26:37;10.50;99.90
54846;DHT22;53889;50.084;8.646;2023-03-31T07:29:05;10.50;99.90
54846;DHT22;53889;50.084;8.646;2023-03-31T07:31:32;10.50;99.90
54846;DHT22;53889;50.084;8.646;2023-03-31T07:34:00;10.50;99.90
54846;DHT22;53889;50.084;8.646;2023-03-31T07:36:28;10.50;99.90
54846;DHT22;53889;50.084;8.646;2023-03-31T07:38:55;10.60;99.90
54846;DHT22;53889;50.084;8.646;2023-03-31T07:41:22;10.50;99.90
54846;DHT22;53889;50.084;8.646;2023-03-31T07:43:52;10.50;99.90
54846;DHT22;53889;50.084;8.646;2023-03-31T07:46:22;10.50;99.90
54846;DHT22;53889;50.084;8.646;2023-03-31T07:48:49;10.50;99.90
54846;DHT22;53889;50.084;8.646;2023-03-31T07:51:18;10.50;99.90
54846;DHT22;53889;50.084;8.646;2023-03-31T07:53:45;10.50;99.90
54846;DHT22;53889;50.084;8.646;2023-03-31T07:56:13;10.50;99.90
54846;DHT22;53889;50.084;8.646;2023-03-31T07:58:41;10.50;99.90
54846;DHT22;53889;50.084;8.646;2023-03-31T08:01:08;10.50;99.90
54846;DHT22;53889;50.084;8.646;2023-03-31T08:03:37;10.60;99.90
54846;DHT22;53889;50.084;8.646;2023-03-31T08:06:04;10.70;99.90
54846;DHT22;53889;50.084;8.646;2023-03-31T08:08:31;10.80;99.90
54846;DHT22;53889;50.084;8.646;2023-03-31T08:10:58;10.90;99.90
54846;DHT22;53889;50.084;8.646;2023-03-31T08:13:25;11.10;99.90
54846;DHT22;53889;50.084;8.646;2023-03-31T08:15:54;11.40;99.90
54846;DHT22;53889;50.084;8.646;2023-03-31T08:18:21;11.30;99.90
54846;DHT22;53889;50.084;8.646;2023-03-31T08:20:49;11.60;99.90
54846;DHT22;53889;50.084;8.646;2023-03-31T08:23:16;12.00;99.90
54846;DHT22;53889;50.084;8.646;2023-03-31T08:25:42;11.90;99.90
54846;DHT22;53889;50.084;8.646;2023-03-31T08:28:09;12.00;99.90
54846;DHT22;53889;50.084;8.646;2023-03-31T08:30:38;12.00;99.90
54846;DHT22;53889;50.084;8.646;2023-03-31T08:33:05;12.00;99.90
54846;DHT22;53889;50.084;8.646;2023-03-31T08:35:33;12.40;99.90
54846;DHT22;53889;50.084;8.646;2023-03-31T08:38:01;13.00;99.90
54846;DHT22;53889;50.084;8.646;2023-03-31T08:40:29;13.20;99.90
54846;DHT22;53889;50.084;8.646;2023-03-31T08:42:58;13.40;99.90
54846;DHT22;53889;50.084;8.646;2023-03-31T08:45:30;13.10;99.90
54846;DHT22;53889;50.084;8.646;2023-03-31T08:48:01;12.70;99.90
54846;DHT22;53889;50.084;8.646;2023-03-31T08:50:32;12.50;99.90
54846;DHT22;53889;50.084;8.646;2023-03-31T08:53:04;12.30;99.90
54846;DHT22;53889;50.084;8.646;2023-03-31T08:55:36;12.00;99.90
54846;DHT22;53889;50.084;8.646;2023-03-31T08:58:11;12.00;99.90
54846;DHT22;53889;50.084;8.646;2023-03-31T09:00:50;12.00;99.90
54846;DHT22;53889;50.084;8.646;2023-03-31T09:03:24;11.90;99.90
54846;DHT22;53889;50.084;8.646;2023-03-31T09:05:59;12.00;99.90
54846;DHT22;53889;50.084;8.646;2023-03-31T09:08:34;11.90;99.90
54846;DHT22;53889;50.084;8.646;2023-03-31T09:11:09;12.00;99.90
54846;DHT22;53889;50.084;8.646;2023-03-31T09:13:52;12.00;99.90
54846;DHT22;53889;50.084;8.646;2023-03-31T09:16:25;12.20;99.90
54846;DHT22;53889;50.084;8.646;2023-03-31T09:18:56;13.10;99.90
54846;DHT22;53889;50.084;8.646;2023-03-31T09:21:27;14.30;99.90
54846;DHT22;53889;50.084;8.646;2023-03-31T09:24:02;15.30;99.90
54846;DHT22;53889;50.084;8.646;2023-03-31T09:26:35;16.00;99.90
54846;DHT22;53889;50.084;8.646;2023-03-31T09:29:06;15.70;99.90
54846;DHT22;53889;50.084;8.646;2023-03-31T09:31:37;14.70;99.90
54846;DHT22;53889;50.084;8.646;2023-03-31T09:34:11;15.30;99.90
54846;DHT22;53889;50.084;8.646;2023-03-31T09:36:38;13.80;99.90
54846;DHT22;53889;50.084;8.646;2023-03-31T09:39:09;13.60;99.90
54846;DHT22;53889;50.084;8.646;2023-03-31T09:41:38;13.50;99.90
54846;DHT22;53889;50.084;8.646;2023-03-31T09:44:15;14.50;99.90
54846;DHT22;53889;50.084;8.646;2023-03-31T09:46:46;15.50;99.90
54846;DHT22;53889;50.084;8.646;2023-03-31T09:49:15;16.00;99.90
54846;DHT22;53889;50.084;8.646;2023-03-31T09:51:45;16.00;99.90
54846;DHT22;53889;50.084;8.646;2023-03-31T09:54:21;16.40;99.90
54846;DHT22;53889;50.084;8.646;2023-03-31T09:56:50;16.80;99.90
54846;DHT22;53889;50.084;8.646;2023-03-31T09:59:19;15.90;99.90
54846;DHT22;53889;50.084;8.646;2023-03-31T10:01:49;15.60;99.90
54846;DHT22;53889;50.084;8.646;2023-03-31T10:04:21;15.00;99.90
54846;DHT22;53889;50.084;8.646;2023-03-31T10:06:48;14.90;99.90
54846;DHT22;53889;50.084;8.646;2023-03-31T10:09:19;14.50;99.90
54846;DHT22;53889;50.084;8.646;2023-03-31T10:11:53;14.10;99.90
54846;DHT22;53889;50.084;8.646;2023-03-31T10:14:24;13.90;99.90
54846;DHT22;53889;50.084;8.646;2023-03-31T10:16:53;13.80;99.90
54846;DHT22;53889;50.084;8.646;2023-03-31T10:19:23;13.60;99.90
54846;DHT22;53889;50.084;8.646;2023-03-31T10:21:56;13.20;99.90
54846;DHT22;53889;50.084;8.646;2023-03-31T10:24:25;13.10;99.90
54846;DHT22;53889;50.084;8.646;2023-03-31T10:27:01;12.90;99.90
54846;DHT22;53889;50.084;8.646;2023-03-31T10:29:29;12.60;99.90
54846;DHT22;53889;50.084;8.646;2023-03-31T10:32:02;12.30;99.90
54846;DHT22;53889;50.084;8.646;2023-03-31T10:34:29;12.10;99.90
54846;DHT22;53889;50.084;8.646;2023-03-31T10:36:57;11.90;99.90
54846;DHT22;53889;50.084;8.646;2023-03-31T10:39:29;11.40;99.90
54846;DHT22;53889;50.084;8.646;2023-03-31T10:41:56;10.90;99.90
54846;DHT22;53889;50.084;8.646;2023-03-31T10:44:34;10.60;99.90
54846;DHT22;53889;50.084;8.646;2023-03-31T10:47:15;10.60;99.90
54846;DHT22;53889;50.084;8.646;2023-03-31T10:49:44;10.50;99.90
54846;DHT22;53889;50.084;8.646;2023-03-31T10:52:16;10.40;99.90
54846;DHT22;53889;50.084;8.646;2023-03-31T10:54:49;10.30;99.90
54846;DHT22;53889;50.084;8.646;2023-03-31T10:57:17;10.30;99.90
54846;DHT22;53889;50.084;8.646;2023-03-31T10:59:52;10.40;99.90
54846;DHT22;53889;50.084;8.646;2023-03-31T11:05:34;10.60;99.90
54846;DHT22;53889;50.084;8.646;2023-03-31T11:08:20;10.60;99.90
54846;DHT22;53889;50.084;8.646;2023-03-31T11:11:05;10.80;99.90
54846;DHT22;53889;50.084;8.646;2023-03-31T11:13:37;11.00;99.90
54846;DHT22;53889;50.084;8.646;2023-03-31T11:16:14;11.00;99.90
54846;DHT22;53889;50.084;8.646;2023-03-31T11:18:55;11.30;99.90
54846;DHT22;53889;50.084;8.646;2023-03-31T11:21:28;11.60;99.90
54846;DHT22;53889;50.084;8.646;2023-03-31T11:24:04;12.10;99.90
54846;DHT22;53889;50.084;8.646;2023-03-31T11:26:42;12.50;99.90
54846;DHT22;53889;50.084;8.646;2023-03-31T11:29:21;13.10;99.90
54846;DHT22;53889;50.084;8.646;2023-03-31T11:31:57;13.70;99.90
54846;DHT22;53889;50.084;8.646;2023-03-31T11:34:44;14.30;99.90
54846;DHT22;53889;50.084;8.646;2023-03-31T11:37:29;14.80;99.90
54846;DHT22;53889;50.084;8.646;2023-03-31T11:40:11;15.00;99.90
54846;DHT22;53889;50.084;8.646;2023-03-31T11:42:47;15.50;99.90
54846;DHT22;53889;50.084;8.646;2023-03-31T11:45:18;15.70;99.90
54846;DHT22;53889;50.084;8.646;2023-03-31T11:47:49;15.70;99.90
54846;DHT22;53889;50.084;8.646;2023-03-31T11:50:19;15.20;99.90
54846;DHT22;53889;50.084;8.646;2023-03-31T11:52:51;15.00;99.90
54846;DHT22;53889;50.084;8.646;2023-03-31T11:55:20;14.80;99.90
54846;DHT22;53889;50.084;8.646;2023-03-31T11:57:56;14.50;99.90
54846;DHT22;53889;50.084;8.646;2023-03-31T12:00:27;14.30;99.90
54846;DHT22;53889;50.084;8.646;2023-03-31T12:03:00;14.20;99.90
54846;DHT22;53889;50.084;8.646;2023-03-31T12:05:31;14.30;99.90
54846;DHT22;53889;50.084;8.646;2023-03-31T12:08:01;14.10;99.90
54846;DHT22;53889;50.084;8.646;2023-03-31T12:10:32;14.00;99.90
54846;DHT22;53889;50.084;8.646;2023-03-31T12:13:14;13.80;99.90
54846;DHT22;53889;50.084;8.646;2023-03-31T12:15:46;13.60;99.90
54846;DHT22;53889;50.084;8.646;2023-03-31T12:18:20;13.30;99.90
54846;DHT22;53889;50.084;8.646;2023-03-31T12:20:50;13.10;99.90
54846;DHT22;53889;50.084;8.646;2023-03-31T12:23:21;12.90;99.90
54846;DHT22;53889;50.084;8.646;2023-03-31T12:25:51;13.00;99.90
54846;DHT22;53889;50.084;8.646;2023-03-31T12:28:22;13.00;99.90
54846;DHT22;53889;50.084;8.646;2023-03-31T12:30:50;13.00;99.90
54846;DHT22;53889;50.084;8.646;2023-03-31T12:33:19;13.10;99.90
54846;DHT22;53889;50.084;8.646;2023-03-31T12:36:02;13.10;99.90
54846;DHT22;53889;50.084;8.646;2023-03-31T12:38:44;13.00;99.90
54846;DHT22;53889;50.084;8.646;2023-03-31T12:41:18;13.00;99.90
54846;DHT22;53889;50.084;8.646;2023-03-31T12:44:03;12.70;99.90
54846;DHT22;53889;50.084;8.646;2023-03-31T12:47:01;12.40;99.90
54846;DHT22;53889;50.084;8.646;2023-03-31T12:49:53;12.10;99.90
54846;DHT22;53889;50.084;8.646;2023-03-31T12:52:33;11.60;99.90
54846;DHT22;53889;50.084;8.646;2023-03-31T12:55:30;11.40;99.90
54846;DHT22;53889;50.084;8.646;2023-03-31T13:01:06;11.50;99.90
54846;DHT22;53889;50.084;8.646;2023-03-31T13:03:37;11.60;99.90
54846;DHT22;53889;50.084;8.646;2023-03-31T13:06:09;11.80;99.90
54846;DHT22;53889;50.084;8.646;2023-03-31T13:08:54;11.90;99.90
54846;DHT22;53889;50.084;8.646;2023-03-31T13:11:34;12.00;99.90
54846;DHT22;53889;50.084;8.646;2023-03-31T13:14:05;12.20;99.90
54846;DHT22;53889;50.084;8.646;2023-03-31T13:16:34;12.30;99.90
54846;DHT22;53889;50.084;8.646;2023-03-31T13:19:01;12.50;99.90
54846;DHT22;53889;50.084;8.646;2023-03-31T13:21:28;12.50;99.90
54846;DHT22;53889;50.084;8.646;2023-03-31T13:23:59;12.80;99.90
54846;DHT22;53889;50.084;8.646;2023-03-31T13:26:41;12.70;99.90
54846;DHT22;53889;50.084;8.646;2023-03-31T13:29:21;12.90;99.90
54846;DHT22;53889;50.084;8.646;2023-03-31T13:32:20;13.10;99.90
54846;DHT22;53889;50.084;8.646;2023-03-31T13:34:51;13.30;99.90
54846;DHT22;53889;50.084;8.646;2023-03-31T13:37:42;13.30;99.90
54846;DHT22;53889;50.084;8.646;2023-03-31T13:40:18;13.50;99.90
54846;DHT22;53889;50.084;8.646;2023-03-31T13:43:02;13.50;99.90
54846;DHT22;53889;50.084;8.646;2023-03-31T13:45:47;13.50;99.90
54846;DHT22;53889;50.084;8.646;2023-03-31T13:48:26;13.40;99.90
54846;DHT22;53889;50.084;8.646;2023-03-31T13:51:21;13.30;99.90
54846;DHT22;53889;50.084;8.646;2023-03-31T13:54:14;13.10;99.90
54846;DHT22;53889;50.084;8.646;2023-03-31T13:56:59;13.00;99.90
54846;DHT22;53889;50.084;8.646;2023-03-31T13:59:58;13.00;99.90
54846;DHT22;53889;50.084;8.646;2023-03-31T14:03:03;13.10;99.90
54846;DHT22;53889;50.084;8.646;2023-03-31T14:05:35;13.10;99.90
54846;DHT22;53889;50.084;8.646;2023-03-31T14:08:06;13.20;99.90
54846;DHT22;53889;50.084;8.646;2023-03-31T14:10:37;13.30;99.90
54846;DHT22;53889;50.084;8.646;2023-03-31T14:13:07;13.40;99.90
54846;DHT22;53889;50.084;8.646;2023-03-31T14:15:35;13.40;99.90
54846;DHT22;53889;50.084;8.646;2023-03-31T14:18:03;13.40;99.90
54846;DHT22;53889;50.084;8.646;2023-03-31T14:20:37;13.50;99.90
54846;DHT22;53889;50.084;8.646;2023-03-31T14:23:14;13.60;99.90
54846;DHT22;53889;50.084;8.646;2023-03-31T14:25:48;13.70;99.90
54846;DHT22;53889;50.084;8.646;2023-03-31T14:28:44;13.80;99.90
54846;DHT22;53889;50.084;8.646;2023-03-31T14:31:16;14.00;99.90
54846;DHT22;53889;50.084;8.646;2023-03-31T14:33:58;14.00;99.90
54846;DHT22;53889;50.084;8.646;2023-03-31T14:36:37;14.00;99.90
54846;DHT22;53889;50.084;8.646;2023-03-31T14:39:09;14.00;99.90
54846;DHT22;53889;50.084;8.646;2023-03-31T14:41:37;13.90;99.90
54846;DHT22;53889;50.084;8.646;2023-03-31T14:44:05;14.00;99.90
54846;DHT22;53889;50.084;8.646;2023-03-31T14:46:37;13.90;99.90
54846;DHT22;53889;50.084;8.646;2023-03-31T14:49:17;13.90;99.90
54846;DHT22;53889;50.084;8.646;2023-03-31T14:51:46;13.90;99.90
54846;DHT22;53889;50.084;8.646;2023-03-31T14:54:16;13.80;99.90
54846;DHT22;53889;50.084;8.646;2023-03-31T14:56:45;13.60;99.90
54846;DHT22;53889;50.084;8.646;2023-03-31T14:59:16;13.60;99.90
54846;DHT22;53889;50.084;8.646;2023-03-31T15:01:45;13.60;99.90
54846;DHT22;53889;50.084;8.646;2023-03-31T15:04:15;13.60;99.90
54846;DHT22;53889;50.084;8.646;2023-03-31T15:06:46;13.60;99.90
54846;DHT22;53889;50.084;8.646;2023-03-31T15:09:18;13.60;99.90
54846;DHT22;53889;50.084;8.646;2023-03-31T15:11:47;13.50;99.90
54846;DHT22;53889;50.084;8.646;2023-03-31T15:14:19;13.30;99.90
54846;DHT22;53889;50.084;8.646;2023-03-31T15:16:45;13.10;99.90
54846;DHT22;53889;50.084;8.646;2023-03-31T15:19:17;12.70;99.90
54846;DHT22;53889;50.084;8.646;2023-03-31T15:21:49;12.30;99.90
54846;DHT22;53889;50.084;8.646;2023-03-31T15:24:19;11.90;99.90
54846;DHT22;53889;50.084;8.646;2023-03-31T15:26:50;11.70;99.90
54846;DHT22;53889;50.084;8.646;2023-03-31T15:29:24;11.50;99.90
54846;DHT22;53889;50.084;8.646;2023-03-31T15:31:55;11.50;99.90
54846;DHT22;53889;50.084;8.646;2023-03-31T15:34:25;11.50;99.90
54846;DHT22;53889;50.084;8.646;2023-03-31T15:36:55;11.50;99.90
54846;DHT22;53889;50.084;8.646;2023-03-31T15:39:23;11.50;99.90
54846;DHT22;53889;50.084;8.646;2023-03-31T15:41:50;11.60;99.90
54846;DHT22;53889;50.084;8.646;2023-03-31T15:44:34;11.50;99.90
54846;DHT22;53889;50.084;8.646;2023-03-31T15:47:06;11.70;99.90
54846;DHT22;53889;50.084;8.646;2023-03-31T15:49:33;11.70;99.90
54846;DHT22;53889;50.084;8.646;2023-03-31T15:52:02;11.80;99.90
54846;DHT22;53889;50.084;8.646;2023-03-31T15:54:32;11.90;99.90
54846;DHT22;53889;50.084;8.646;2023-03-31T15:57:00;11.90;99.90
54846;DHT22;53889;50.084;8.646;2023-03-31T15:59:28;12.00;99.90
54846;DHT22;53889;50.084;8.646;2023-03-31T16:01:56;12.00;99.90
54846;DHT22;53889;50.084;8.646;2023-03-31T16:04:29;12.10;99.90
54846;DHT22;53889;50.084;8.646;2023-03-31T16:06:59;12.10;99.90
54846;DHT22;53889;50.084;8.646;2023-03-31T16:09:38;12.10;99.90